sensor_id;sensor_type;location;lat;lon;timestamp;P1;durP1;ratioP1;P2;durP2;ratioP2
57889;SDS011;43707;50.184;18.966;2022-08-19T00:01:22;9.40;;;8.50;;
57889;SDS011;43707;50.184;18.966;2022-08-19T00:03:48;10.50;;;9.30;;
57889;SDS011;43707;50.184;18.966;2022-08-19T00:06:14;8.80;;;8.00;;
57889;SDS011;43707;50.184;18.966;2022-08-19T00:08:40;9.40;;;8.30;;
57889;SDS011;43707;50.184;18.966;2022-08-19T00:11:05;9.60;;;8.70;;
57889;SDS011;43707;50.184;18.966;2022-08-19T00:13:32;10.30;;;9.20;;
57889;SDS011;43707;50.184;18.966;2022-08-19T00:15:58;11.50;;;9.20;;
57889;SDS011;43707;50.184;18.966;2022-08-19T00:18:25;11.30;;;10.10;;
57889;SDS011;43707;50.184;18.966;2022-08-19T00:20:51;14.30;;;9.90;;
57889;SDS011;43707;50.184;18.966;2022-08-19T00:23:16;10.00;;;9.10;;
57889;SDS011;43707;50.184;18.966;2022-08-19T00:25:42;9.70;;;8.60;;
57889;SDS011;43707;50.184;18.966;2022-08-19T00:28:07;10.10;;;9.10;;
57889;SDS011;43707;50.184;18.966;2022-08-19T00:30:33;13.00;;;10.20;;
57889;SDS011;43707;50.184;18.966;2022-08-19T00:32:58;10.30;;;9.30;;
57889;SDS011;43707;50.184;18.966;2022-08-19T00:35:24;10.30;;;9.30;;
57889;SDS011;43707;50.184;18.966;2022-08-19T00:37:52;10.30;;;9.20;;
57889;SDS011;43707;50.184;18.966;2022-08-19T00:40:17;10.00;;;9.00;;
57889;SDS011;43707;50.184;18.966;2022-08-19T00:42:44;11.20;;;9.20;;
57889;SDS011;43707;50.184;18.966;2022-08-19T00:45:12;11.30;;;10.10;;
57889;SDS011;43707;50.184;18.966;2022-08-19T00:47:40;11.50;;;10.30;;
57889;SDS011;43707;50.184;18.966;2022-08-19T00:50:05;11.20;;;10.10;;
57889;SDS011;43707;50.184;18.966;2022-08-19T00:52:35;14.70;;;9.60;;
57889;SDS011;43707;50.184;18.966;2022-08-19T00:55:04;12.20;;;10.00;;
57889;SDS011;43707;50.184;18.966;2022-08-19T00:57:35;13.50;;;10.30;;
57889;SDS011;43707;50.184;18.966;2022-08-19T01:00:04;11.70;;;9.80;;
57889;SDS011;43707;50.184;18.966;2022-08-19T01:02:35;11.00;;;9.80;;
57889;SDS011;43707;50.184;18.966;2022-08-19T01:05:01;12.70;;;9.90;;
57889;SDS011;43707;50.184;18.966;2022-08-19T01:07:29;10.70;;;9.70;;
57889;SDS011;43707;50.184;18.966;2022-08-19T01:09:54;12.40;;;10.40;;
57889;SDS011;43707;50.184;18.966;2022-08-19T01:12:20;14.00;;;9.80;;
57889;SDS011;43707;50.184;18.966;2022-08-19T01:14:46;10.70;;;9.10;;
57889;SDS011;43707;50.184;18.966;2022-08-19T01:17:12;10.40;;;9.30;;
57889;SDS011;43707;50.184;18.966;2022-08-19T01:19:40;12.50;;;11.10;;
57889;SDS011;43707;50.184;18.966;2022-08-19T01:24:54;13.30;;;11.80;;
57889;SDS011;43707;50.184;18.966;2022-08-19T01:27:19;12.10;;;10.60;;
57889;SDS011;43707;50.184;18.966;2022-08-19T01:29:45;14.80;;;10.50;;
57889;SDS011;43707;50.184;18.966;2022-08-19T01:32:12;11.30;;;10.20;;
57889;SDS011;43707;50.184;18.966;2022-08-19T01:34:40;10.90;;;10.00;;
57889;SDS011;43707;50.184;18.966;2022-08-19T01:37:07;11.30;;;10.20;;
57889;SDS011;43707;50.184;18.966;2022-08-19T01:39:36;11.40;;;10.40;;
57889;SDS011;43707;50.184;18.966;2022-08-19T01:42:02;11.90;;;10.90;;
57889;SDS011;43707;50.184;18.966;2022-08-19T01:44:28;13.40;;;11.60;;
57889;SDS011;43707;50.184;18.966;2022-08-19T01:46:54;16.10;;;12.10;;
57889;SDS011;43707;50.184;18.966;2022-08-19T01:49:21;11.70;;;10.60;;
57889;SDS011;43707;50.184;18.966;2022-08-19T01:51:50;14.30;;;11.20;;
57889;SDS011;43707;50.184;18.966;2022-08-19T01:54:16;12.10;;;10.70;;
57889;SDS011;43707;50.184;18.966;2022-08-19T01:56:42;11.60;;;10.10;;
57889;SDS011;43707;50.184;18.966;2022-08-19T01:59:09;11.90;;;10.40;;
57889;SDS011;43707;50.184;18.966;2022-08-19T02:01:37;14.50;;;11.00;;
57889;SDS011;43707;50.184;18.966;2022-08-19T02:04:03;12.50;;;11.10;;
57889;SDS011;43707;50.184;18.966;2022-08-19T02:06:28;12.20;;;11.10;;
57889;SDS011;43707;50.184;18.966;2022-08-19T02:08:55;12.20;;;11.10;;
57889;SDS011;43707;50.184;18.966;2022-08-19T02:11:22;12.30;;;11.00;;
57889;SDS011;43707;50.184;18.966;2022-08-19T02:13:51;12.00;;;10.70;;
57889;SDS011;43707;50.184;18.966;2022-08-19T02:16:18;13.10;;;11.10;;
57889;SDS011;43707;50.184;18.966;2022-08-19T02:18:44;13.50;;;12.20;;
57889;SDS011;43707;50.184;18.966;2022-08-19T02:21:12;12.80;;;11.60;;
57889;SDS011;43707;50.184;18.966;2022-08-19T02:23:38;12.70;;;11.50;;
57889;SDS011;43707;50.184;18.966;2022-08-19T02:26:03;13.10;;;11.20;;
57889;SDS011;43707;50.184;18.966;2022-08-19T02:28:29;11.30;;;10.20;;
57889;SDS011;43707;50.184;18.966;2022-08-19T02:30:54;12.30;;;11.10;;
57889;SDS011;43707;50.184;18.966;2022-08-19T02:33:20;13.40;;;12.10;;
57889;SDS011;43707;50.184;18.966;2022-08-19T02:35:45;17.40;;;13.60;;
57889;SDS011;43707;50.184;18.966;2022-08-19T02:38:12;14.10;;;12.30;;
57889;SDS011;43707;50.184;18.966;2022-08-19T02:40:54;14.20;;;11.80;;
57889;SDS011;43707;50.184;18.966;2022-08-19T02:43:22;12.30;;;11.20;;
57889;SDS011;43707;50.184;18.966;2022-08-19T02:45:48;15.40;;;11.90;;
57889;SDS011;43707;50.184;18.966;2022-08-19T02:48:21;12.60;;;10.90;;
57889;SDS011;43707;50.184;18.966;2022-08-19T02:50:48;13.50;;;12.10;;
57889;SDS011;43707;50.184;18.966;2022-08-19T02:53:20;14.30;;;12.80;;
57889;SDS011;43707;50.184;18.966;2022-08-19T02:55:50;13.10;;;11.20;;
57889;SDS011;43707;50.184;18.966;2022-08-19T02:58:16;15.80;;;13.30;;
57889;SDS011;43707;50.184;18.966;2022-08-19T03:00:42;14.50;;;12.00;;
57889;SDS011;43707;50.184;18.966;2022-08-19T03:03:09;14.50;;;11.30;;
57889;SDS011;43707;50.184;18.966;2022-08-19T03:05:35;14.50;;;12.60;;
57889;SDS011;43707;50.184;18.966;2022-08-19T03:08:00;13.30;;;11.60;;
57889;SDS011;43707;50.184;18.966;2022-08-19T03:10:26;15.90;;;12.40;;
57889;SDS011;43707;50.184;18.966;2022-08-19T03:12:51;14.50;;;13.00;;
57889;SDS011;43707;50.184;18.966;2022-08-19T03:15:17;18.00;;;13.40;;
57889;SDS011;43707;50.184;18.966;2022-08-19T03:17:42;21.50;;;13.30;;
57889;SDS011;43707;50.184;18.966;2022-08-19T03:20:08;12.20;;;11.10;;
57889;SDS011;43707;50.184;18.966;2022-08-19T03:22:33;15.10;;;12.50;;
57889;SDS011;43707;50.184;18.966;2022-08-19T03:24:59;13.20;;;11.80;;
57889;SDS011;43707;50.184;18.966;2022-08-19T03:27:24;13.70;;;12.40;;
57889;SDS011;43707;50.184;18.966;2022-08-19T03:29:50;13.50;;;11.50;;
57889;SDS011;43707;50.184;18.966;2022-08-19T03:32:16;14.50;;;12.50;;
57889;SDS011;43707;50.184;18.966;2022-08-19T03:34:41;13.80;;;12.50;;
57889;SDS011;43707;50.184;18.966;2022-08-19T03:37:08;15.00;;;13.30;;
57889;SDS011;43707;50.184;18.966;2022-08-19T03:39:37;14.60;;;13.10;;
57889;SDS011;43707;50.184;18.966;2022-08-19T03:42:03;14.10;;;12.10;;
57889;SDS011;43707;50.184;18.966;2022-08-19T03:44:29;13.40;;;12.00;;
57889;SDS011;43707;50.184;18.966;2022-08-19T03:46:57;13.40;;;12.10;;
57889;SDS011;43707;50.184;18.966;2022-08-19T03:49:25;12.60;;;11.10;;
57889;SDS011;43707;50.184;18.966;2022-08-19T03:51:52;14.00;;;12.20;;
57889;SDS011;43707;50.184;18.966;2022-08-19T03:54:19;14.50;;;13.10;;
57889;SDS011;43707;50.184;18.966;2022-08-19T03:56:48;14.60;;;13.10;;
57889;SDS011;43707;50.184;18.966;2022-08-19T03:59:17;13.30;;;12.00;;
57889;SDS011;43707;50.184;18.966;2022-08-19T04:01:45;14.60;;;13.10;;
57889;SDS011;43707;50.184;18.966;2022-08-19T04:04:10;14.00;;;12.60;;
57889;SDS011;43707;50.184;18.966;2022-08-19T04:06:37;13.50;;;12.20;;
57889;SDS011;43707;50.184;18.966;2022-08-19T04:09:05;13.70;;;12.30;;
57889;SDS011;43707;50.184;18.966;2022-08-19T04:11:34;13.30;;;12.00;;
57889;SDS011;43707;50.184;18.966;2022-08-19T04:14:06;13.90;;;12.40;;
57889;SDS011;43707;50.184;18.966;2022-08-19T04:16:32;16.50;;;13.90;;
57889;SDS011;43707;50.184;18.966;2022-08-19T04:18:59;14.90;;;13.30;;
57889;SDS011;43707;50.184;18.966;2022-08-19T04:21:26;14.00;;;11.70;;
57889;SDS011;43707;50.184;18.966;2022-08-19T04:23:53;14.10;;;12.70;;
57889;SDS011;43707;50.184;18.966;2022-08-19T04:26:20;13.60;;;12.20;;
57889;SDS011;43707;50.184;18.966;2022-08-19T04:28:50;13.70;;;12.40;;
57889;SDS011;43707;50.184;18.966;2022-08-19T04:31:20;18.80;;;13.20;;
57889;SDS011;43707;50.184;18.966;2022-08-19T04:33:47;13.50;;;12.10;;
57889;SDS011;43707;50.184;18.966;2022-08-19T04:36:22;15.40;;;13.80;;
57889;SDS011;43707;50.184;18.966;2022-08-19T04:38:52;16.40;;;14.50;;
57889;SDS011;43707;50.184;18.966;2022-08-19T04:41:19;14.80;;;13.30;;
57889;SDS011;43707;50.184;18.966;2022-08-19T04:44:04;16.60;;;13.20;;
57889;SDS011;43707;50.184;18.966;2022-08-19T04:46:30;14.00;;;12.30;;
57889;SDS011;43707;50.184;18.966;2022-08-19T04:48:57;13.90;;;12.40;;
57889;SDS011;43707;50.184;18.966;2022-08-19T04:51:23;14.60;;;13.00;;
57889;SDS011;43707;50.184;18.966;2022-08-19T04:53:48;21.30;;;14.10;;
57889;SDS011;43707;50.184;18.966;2022-08-19T04:56:15;18.30;;;13.90;;
57889;SDS011;43707;50.184;18.966;2022-08-19T04:58:42;14.80;;;13.30;;
57889;SDS011;43707;50.184;18.966;2022-08-19T05:01:11;14.10;;;12.60;;
57889;SDS011;43707;50.184;18.966;2022-08-19T05:03:37;18.00;;;12.90;;
57889;SDS011;43707;50.184;18.966;2022-08-19T05:06:06;18.80;;;12.60;;
57889;SDS011;43707;50.184;18.966;2022-08-19T05:08:33;16.40;;;12.20;;
57889;SDS011;43707;50.184;18.966;2022-08-19T05:11:01;18.80;;;13.40;;
57889;SDS011;43707;50.184;18.966;2022-08-19T05:13:31;16.70;;;13.20;;
57889;SDS011;43707;50.184;18.966;2022-08-19T05:15:58;14.10;;;12.70;;
57889;SDS011;43707;50.184;18.966;2022-08-19T05:18:25;14.60;;;11.50;;
57889;SDS011;43707;50.184;18.966;2022-08-19T05:21:10;12.70;;;11.40;;
57889;SDS011;43707;50.184;18.966;2022-08-19T05:23:55;13.80;;;12.20;;
57889;SDS011;43707;50.184;18.966;2022-08-19T05:26:21;13.10;;;11.80;;
57889;SDS011;43707;50.184;18.966;2022-08-19T05:28:46;12.70;;;11.50;;
57889;SDS011;43707;50.184;18.966;2022-08-19T05:31:11;14.40;;;11.30;;
57889;SDS011;43707;50.184;18.966;2022-08-19T05:33:37;14.50;;;11.80;;
57889;SDS011;43707;50.184;18.966;2022-08-19T05:36:05;12.50;;;11.20;;
57889;SDS011;43707;50.184;18.966;2022-08-19T05:38:32;13.30;;;11.00;;
57889;SDS011;43707;50.184;18.966;2022-08-19T05:40:58;14.20;;;12.00;;
57889;SDS011;43707;50.184;18.966;2022-08-19T05:43:23;13.70;;;12.00;;
57889;SDS011;43707;50.184;18.966;2022-08-19T05:45:49;13.80;;;11.10;;
57889;SDS011;43707;50.184;18.966;2022-08-19T05:48:15;12.40;;;11.20;;
57889;SDS011;43707;50.184;18.966;2022-08-19T05:50:42;12.00;;;10.90;;
57889;SDS011;43707;50.184;18.966;2022-08-19T05:53:09;12.00;;;10.60;;
57889;SDS011;43707;50.184;18.966;2022-08-19T05:55:35;13.70;;;11.30;;
57889;SDS011;43707;50.184;18.966;2022-08-19T05:58:03;12.70;;;10.80;;
57889;SDS011;43707;50.184;18.966;2022-08-19T06:00:28;12.50;;;11.20;;
57889;SDS011;43707;50.184;18.966;2022-08-19T06:02:56;15.60;;;11.50;;
57889;SDS011;43707;50.184;18.966;2022-08-19T06:05:24;12.40;;;11.20;;
57889;SDS011;43707;50.184;18.966;2022-08-19T06:07:50;14.50;;;10.40;;
57889;SDS011;43707;50.184;18.966;2022-08-19T06:10:15;14.60;;;11.20;;
57889;SDS011;43707;50.184;18.966;2022-08-19T06:12:40;16.70;;;11.00;;
57889;SDS011;43707;50.184;18.966;2022-08-19T06:15:08;17.70;;;11.40;;
57889;SDS011;43707;50.184;18.966;2022-08-19T06:17:35;15.00;;;11.10;;
57889;SDS011;43707;50.184;18.966;2022-08-19T06:20:01;12.20;;;10.30;;
57889;SDS011;43707;50.184;18.966;2022-08-19T06:22:42;18.70;;;10.60;;
57889;SDS011;43707;50.184;18.966;2022-08-19T06:25:09;17.60;;;10.40;;
57889;SDS011;43707;50.184;18.966;2022-08-19T06:27:36;13.60;;;10.80;;
57889;SDS011;43707;50.184;18.966;2022-08-19T06:30:02;14.20;;;10.90;;
57889;SDS011;43707;50.184;18.966;2022-08-19T06:32:29;16.50;;;11.20;;
57889;SDS011;43707;50.184;18.966;2022-08-19T06:34:55;12.70;;;10.50;;
57889;SDS011;43707;50.184;18.966;2022-08-19T06:37:20;14.30;;;10.10;;
57889;SDS011;43707;50.184;18.966;2022-08-19T06:39:46;15.40;;;10.00;;
57889;SDS011;43707;50.184;18.966;2022-08-19T06:42:12;12.10;;;10.80;;
57889;SDS011;43707;50.184;18.966;2022-08-19T06:44:42;12.50;;;10.40;;
57889;SDS011;43707;50.184;18.966;2022-08-19T06:47:09;12.70;;;11.20;;
57889;SDS011;43707;50.184;18.966;2022-08-19T06:49:36;10.90;;;10.00;;
57889;SDS011;43707;50.184;18.966;2022-08-19T06:52:01;11.60;;;10.30;;
57889;SDS011;43707;50.184;18.966;2022-08-19T06:54:27;11.70;;;10.40;;
57889;SDS011;43707;50.184;18.966;2022-08-19T06:56:54;12.00;;;10.90;;
57889;SDS011;43707;50.184;18.966;2022-08-19T06:59:22;16.10;;;10.60;;
57889;SDS011;43707;50.184;18.966;2022-08-19T07:01:52;12.60;;;10.70;;
57889;SDS011;43707;50.184;18.966;2022-08-19T07:04:20;11.80;;;10.40;;
57889;SDS011;43707;50.184;18.966;2022-08-19T07:06:47;13.60;;;10.20;;
57889;SDS011;43707;50.184;18.966;2022-08-19T07:09:14;11.90;;;10.60;;
57889;SDS011;43707;50.184;18.966;2022-08-19T07:11:45;13.70;;;10.60;;
57889;SDS011;43707;50.184;18.966;2022-08-19T07:14:11;11.60;;;10.40;;
57889;SDS011;43707;50.184;18.966;2022-08-19T07:16:37;13.20;;;10.60;;
57889;SDS011;43707;50.184;18.966;2022-08-19T07:19:03;14.90;;;10.90;;
57889;SDS011;43707;50.184;18.966;2022-08-19T07:21:28;11.20;;;10.20;;
57889;SDS011;43707;50.184;18.966;2022-08-19T07:23:54;11.20;;;10.20;;
57889;SDS011;43707;50.184;18.966;2022-08-19T07:26:22;13.50;;;10.00;;
57889;SDS011;43707;50.184;18.966;2022-08-19T07:28:49;13.50;;;10.10;;
57889;SDS011;43707;50.184;18.966;2022-08-19T07:31:17;21.20;;;10.90;;
57889;SDS011;43707;50.184;18.966;2022-08-19T07:33:47;11.80;;;10.70;;
57889;SDS011;43707;50.184;18.966;2022-08-19T07:36:14;16.90;;;10.50;;
57889;SDS011;43707;50.184;18.966;2022-08-19T07:38:42;12.10;;;9.90;;
57889;SDS011;43707;50.184;18.966;2022-08-19T07:41:11;12.80;;;9.30;;
57889;SDS011;43707;50.184;18.966;2022-08-19T07:43:38;13.10;;;9.80;;
57889;SDS011;43707;50.184;18.966;2022-08-19T07:46:04;14.10;;;10.10;;
57889;SDS011;43707;50.184;18.966;2022-08-19T07:48:30;13.50;;;10.20;;
57889;SDS011;43707;50.184;18.966;2022-08-19T07:50:57;10.50;;;9.50;;
57889;SDS011;43707;50.184;18.966;2022-08-19T07:53:26;11.90;;;9.40;;
57889;SDS011;43707;50.184;18.966;2022-08-19T07:55:53;12.40;;;9.70;;
57889;SDS011;43707;50.184;18.966;2022-08-19T07:58:19;10.90;;;9.70;;
57889;SDS011;43707;50.184;18.966;2022-08-19T08:00:47;12.30;;;9.60;;
57889;SDS011;43707;50.184;18.966;2022-08-19T08:03:16;10.80;;;9.40;;
57889;SDS011;43707;50.184;18.966;2022-08-19T08:05:43;10.10;;;9.00;;
57889;SDS011;43707;50.184;18.966;2022-08-19T08:08:27;11.20;;;10.10;;
57889;SDS011;43707;50.184;18.966;2022-08-19T08:11:12;12.30;;;9.60;;
57889;SDS011;43707;50.184;18.966;2022-08-19T08:13:38;11.10;;;10.00;;
57889;SDS011;43707;50.184;18.966;2022-08-19T08:16:06;12.00;;;10.10;;
57889;SDS011;43707;50.184;18.966;2022-08-19T08:18:32;10.10;;;9.20;;
57889;SDS011;43707;50.184;18.966;2022-08-19T08:20:59;11.50;;;9.20;;
57889;SDS011;43707;50.184;18.966;2022-08-19T08:23:24;10.70;;;9.80;;
57889;SDS011;43707;50.184;18.966;2022-08-19T08:25:51;10.70;;;9.30;;
57889;SDS011;43707;50.184;18.966;2022-08-19T08:28:18;10.10;;;8.90;;
57889;SDS011;43707;50.184;18.966;2022-08-19T08:30:44;12.00;;;9.50;;
57889;SDS011;43707;50.184;18.966;2022-08-19T08:33:12;18.40;;;9.30;;
57889;SDS011;43707;50.184;18.966;2022-08-19T08:35:39;12.90;;;9.70;;
57889;SDS011;43707;50.184;18.966;2022-08-19T08:38:06;10.70;;;9.50;;
57889;SDS011;43707;50.184;18.966;2022-08-19T08:43:08;14.20;;;10.30;;
57889;SDS011;43707;50.184;18.966;2022-08-19T08:45:42;10.90;;;9.70;;
57889;SDS011;43707;50.184;18.966;2022-08-19T08:48:16;10.40;;;9.20;;
57889;SDS011;43707;50.184;18.966;2022-08-19T08:50:46;11.80;;;10.10;;
57889;SDS011;43707;50.184;18.966;2022-08-19T08:53:14;15.10;;;10.50;;
57889;SDS011;43707;50.184;18.966;2022-08-19T08:55:40;10.20;;;9.20;;
57889;SDS011;43707;50.184;18.966;2022-08-19T08:58:11;14.50;;;9.10;;
57889;SDS011;43707;50.184;18.966;2022-08-19T09:00:43;10.30;;;9.30;;
57889;SDS011;43707;50.184;18.966;2022-08-19T09:03:15;12.20;;;8.70;;
57889;SDS011;43707;50.184;18.966;2022-08-19T09:08:18;11.50;;;9.10;;
57889;SDS011;43707;50.184;18.966;2022-08-19T09:10:51;10.50;;;9.40;;
57889;SDS011;43707;50.184;18.966;2022-08-19T09:16:26;16.60;;;12.00;;
57889;SDS011;43707;50.184;18.966;2022-08-19T09:18:57;12.90;;;10.50;;
57889;SDS011;43707;50.184;18.966;2022-08-19T09:21:25;12.50;;;8.30;;
57889;SDS011;43707;50.184;18.966;2022-08-19T09:23:52;12.00;;;9.50;;
57889;SDS011;43707;50.184;18.966;2022-08-19T09:26:19;13.90;;;8.20;;
57889;SDS011;43707;50.184;18.966;2022-08-19T09:28:48;14.60;;;8.60;;
57889;SDS011;43707;50.184;18.966;2022-08-19T09:31:16;11.60;;;8.30;;
57889;SDS011;43707;50.184;18.966;2022-08-19T09:33:43;12.40;;;7.70;;
57889;SDS011;43707;50.184;18.966;2022-08-19T09:36:11;12.90;;;7.60;;
57889;SDS011;43707;50.184;18.966;2022-08-19T09:38:43;10.20;;;7.30;;
57889;SDS011;43707;50.184;18.966;2022-08-19T09:41:11;12.40;;;7.30;;
57889;SDS011;43707;50.184;18.966;2022-08-19T09:43:39;7.90;;;6.80;;
57889;SDS011;43707;50.184;18.966;2022-08-19T09:46:06;8.10;;;6.90;;
57889;SDS011;43707;50.184;18.966;2022-08-19T09:48:34;9.70;;;7.00;;
57889;SDS011;43707;50.184;18.966;2022-08-19T09:51:10;9.80;;;6.70;;
57889;SDS011;43707;50.184;18.966;2022-08-19T09:53:40;9.60;;;6.80;;
57889;SDS011;43707;50.184;18.966;2022-08-19T09:56:06;10.00;;;6.40;;
57889;SDS011;43707;50.184;18.966;2022-08-19T09:58:32;10.40;;;6.60;;
57889;SDS011;43707;50.184;18.966;2022-08-19T10:00:59;12.40;;;6.30;;
57889;SDS011;43707;50.184;18.966;2022-08-19T10:03:26;11.50;;;6.40;;
57889;SDS011;43707;50.184;18.966;2022-08-19T10:05:53;9.20;;;6.30;;
57889;SDS011;43707;50.184;18.966;2022-08-19T10:08:20;9.70;;;6.00;;
57889;SDS011;43707;50.184;18.966;2022-08-19T10:10:48;9.20;;;5.20;;
57889;SDS011;43707;50.184;18.966;2022-08-19T10:13:17;8.80;;;6.20;;
57889;SDS011;43707;50.184;18.966;2022-08-19T10:15:47;7.70;;;5.80;;
57889;SDS011;43707;50.184;18.966;2022-08-19T10:18:15;11.20;;;5.80;;
57889;SDS011;43707;50.184;18.966;2022-08-19T10:20:44;5.90;;;5.30;;
57889;SDS011;43707;50.184;18.966;2022-08-19T10:23:11;8.30;;;6.30;;
57889;SDS011;43707;50.184;18.966;2022-08-19T10:25:37;16.50;;;7.30;;
57889;SDS011;43707;50.184;18.966;2022-08-19T10:28:03;8.80;;;6.80;;
57889;SDS011;43707;50.184;18.966;2022-08-19T10:30:29;7.10;;;6.20;;
57889;SDS011;43707;50.184;18.966;2022-08-19T10:32:54;7.80;;;6.50;;
57889;SDS011;43707;50.184;18.966;2022-08-19T10:35:20;13.10;;;6.10;;
57889;SDS011;43707;50.184;18.966;2022-08-19T10:37:45;8.10;;;5.50;;
57889;SDS011;43707;50.184;18.966;2022-08-19T10:40:11;10.60;;;6.20;;
57889;SDS011;43707;50.184;18.966;2022-08-19T10:42:37;11.50;;;6.10;;
57889;SDS011;43707;50.184;18.966;2022-08-19T10:45:03;12.70;;;6.20;;
57889;SDS011;43707;50.184;18.966;2022-08-19T10:47:31;5.70;;;5.00;;
57889;SDS011;43707;50.184;18.966;2022-08-19T10:49:57;6.80;;;4.70;;
57889;SDS011;43707;50.184;18.966;2022-08-19T10:52:41;5.20;;;4.70;;
57889;SDS011;43707;50.184;18.966;2022-08-19T10:55:09;8.80;;;5.30;;
57889;SDS011;43707;50.184;18.966;2022-08-19T10:57:53;8.20;;;5.80;;
57889;SDS011;43707;50.184;18.966;2022-08-19T11:00:20;8.20;;;4.90;;
57889;SDS011;43707;50.184;18.966;2022-08-19T11:02:46;7.70;;;5.80;;
57889;SDS011;43707;50.184;18.966;2022-08-19T11:05:12;13.10;;;5.50;;
57889;SDS011;43707;50.184;18.966;2022-08-19T11:07:38;9.50;;;4.80;;
57889;SDS011;43707;50.184;18.966;2022-08-19T11:10:05;10.20;;;4.80;;
57889;SDS011;43707;50.184;18.966;2022-08-19T11:12:31;9.60;;;5.10;;
57889;SDS011;43707;50.184;18.966;2022-08-19T11:14:58;9.60;;;4.60;;
57889;SDS011;43707;50.184;18.966;2022-08-19T11:17:23;9.60;;;5.10;;
57889;SDS011;43707;50.184;18.966;2022-08-19T11:19:49;7.10;;;4.90;;
57889;SDS011;43707;50.184;18.966;2022-08-19T11:22:15;8.20;;;4.80;;
57889;SDS011;43707;50.184;18.966;2022-08-19T11:24:40;8.10;;;4.50;;
57889;SDS011;43707;50.184;18.966;2022-08-19T11:27:07;5.20;;;4.70;;
57889;SDS011;43707;50.184;18.966;2022-08-19T11:29:35;6.30;;;4.60;;
57889;SDS011;43707;50.184;18.966;2022-08-19T11:32:05;8.70;;;4.60;;
57889;SDS011;43707;50.184;18.966;2022-08-19T11:34:32;11.10;;;4.40;;
57889;SDS011;43707;50.184;18.966;2022-08-19T11:36:57;11.80;;;4.70;;
57889;SDS011;43707;50.184;18.966;2022-08-19T11:39:25;7.40;;;4.30;;
57889;SDS011;43707;50.184;18.966;2022-08-19T11:41:52;9.40;;;5.00;;
57889;SDS011;43707;50.184;18.966;2022-08-19T11:44:17;14.70;;;5.30;;
57889;SDS011;43707;50.184;18.966;2022-08-19T11:46:43;6.10;;;4.40;;
57889;SDS011;43707;50.184;18.966;2022-08-19T11:49:11;7.80;;;5.10;;
57889;SDS011;43707;50.184;18.966;2022-08-19T11:51:37;10.80;;;4.70;;
57889;SDS011;43707;50.184;18.966;2022-08-19T11:54:06;6.60;;;4.40;;
57889;SDS011;43707;50.184;18.966;2022-08-19T11:56:31;5.80;;;5.20;;
57889;SDS011;43707;50.184;18.966;2022-08-19T11:58:57;5.50;;;4.60;;
57889;SDS011;43707;50.184;18.966;2022-08-19T12:01:24;7.00;;;4.90;;
57889;SDS011;43707;50.184;18.966;2022-08-19T12:03:51;9.30;;;5.30;;
57889;SDS011;43707;50.184;18.966;2022-08-19T12:06:20;6.60;;;4.10;;
57889;SDS011;43707;50.184;18.966;2022-08-19T12:08:50;7.00;;;4.70;;
57889;SDS011;43707;50.184;18.966;2022-08-19T12:11:16;8.00;;;5.20;;
57889;SDS011;43707;50.184;18.966;2022-08-19T12:13:41;13.80;;;4.80;;
57889;SDS011;43707;50.184;18.966;2022-08-19T12:16:11;9.70;;;4.80;;
57889;SDS011;43707;50.184;18.966;2022-08-19T12:18:38;7.00;;;4.40;;
57889;SDS011;43707;50.184;18.966;2022-08-19T12:21:06;7.00;;;4.80;;
57889;SDS011;43707;50.184;18.966;2022-08-19T12:23:31;6.20;;;4.30;;
57889;SDS011;43707;50.184;18.966;2022-08-19T12:25:57;5.80;;;4.80;;
57889;SDS011;43707;50.184;18.966;2022-08-19T12:28:23;8.00;;;4.80;;
57889;SDS011;43707;50.184;18.966;2022-08-19T12:30:50;7.70;;;4.30;;
57889;SDS011;43707;50.184;18.966;2022-08-19T12:33:16;6.60;;;4.40;;
57889;SDS011;43707;50.184;18.966;2022-08-19T12:35:44;7.40;;;5.00;;
57889;SDS011;43707;50.184;18.966;2022-08-19T12:38:11;5.10;;;4.60;;
57889;SDS011;43707;50.184;18.966;2022-08-19T12:40:38;7.70;;;4.50;;
57889;SDS011;43707;50.184;18.966;2022-08-19T12:43:05;6.90;;;4.80;;
57889;SDS011;43707;50.184;18.966;2022-08-19T12:45:31;11.90;;;4.60;;
57889;SDS011;43707;50.184;18.966;2022-08-19T12:47:58;10.30;;;4.30;;
57889;SDS011;43707;50.184;18.966;2022-08-19T12:50:24;5.80;;;4.90;;
57889;SDS011;43707;50.184;18.966;2022-08-19T12:52:50;10.50;;;4.20;;
57889;SDS011;43707;50.184;18.966;2022-08-19T12:55:15;9.90;;;4.50;;
57889;SDS011;43707;50.184;18.966;2022-08-19T12:57:41;7.00;;;4.60;;
57889;SDS011;43707;50.184;18.966;2022-08-19T13:00:08;8.60;;;3.70;;
57889;SDS011;43707;50.184;18.966;2022-08-19T13:02:38;8.70;;;5.30;;
57889;SDS011;43707;50.184;18.966;2022-08-19T13:05:06;9.20;;;4.60;;
57889;SDS011;43707;50.184;18.966;2022-08-19T13:07:33;13.30;;;5.70;;
57889;SDS011;43707;50.184;18.966;2022-08-19T13:09:59;13.70;;;5.00;;
57889;SDS011;43707;50.184;18.966;2022-08-19T13:12:25;6.60;;;4.70;;
57889;SDS011;43707;50.184;18.966;2022-08-19T13:14:51;11.20;;;4.60;;
57889;SDS011;43707;50.184;18.966;2022-08-19T13:17:17;11.10;;;5.90;;
57889;SDS011;43707;50.184;18.966;2022-08-19T13:19:43;7.40;;;5.10;;
57889;SDS011;43707;50.184;18.966;2022-08-19T13:22:08;10.40;;;4.60;;
57889;SDS011;43707;50.184;18.966;2022-08-19T13:24:33;9.70;;;4.30;;
57889;SDS011;43707;50.184;18.966;2022-08-19T13:26:59;12.50;;;4.60;;
57889;SDS011;43707;50.184;18.966;2022-08-19T13:29:25;7.80;;;4.10;;
57889;SDS011;43707;50.184;18.966;2022-08-19T13:32:10;11.40;;;4.60;;
57889;SDS011;43707;50.184;18.966;2022-08-19T13:34:54;12.20;;;5.40;;
57889;SDS011;43707;50.184;18.966;2022-08-19T13:37:19;7.10;;;4.40;;
57889;SDS011;43707;50.184;18.966;2022-08-19T13:40:05;7.70;;;4.70;;
57889;SDS011;43707;50.184;18.966;2022-08-19T13:42:31;10.60;;;5.40;;
57889;SDS011;43707;50.184;18.966;2022-08-19T13:44:57;7.80;;;5.30;;
57889;SDS011;43707;50.184;18.966;2022-08-19T13:47:23;20.80;;;5.30;;
57889;SDS011;43707;50.184;18.966;2022-08-19T13:49:49;5.70;;;5.00;;
57889;SDS011;43707;50.184;18.966;2022-08-19T13:52:15;10.30;;;4.00;;
57889;SDS011;43707;50.184;18.966;2022-08-19T13:54:40;12.40;;;4.90;;
57889;SDS011;43707;50.184;18.966;2022-08-19T13:57:06;9.50;;;5.30;;
57889;SDS011;43707;50.184;18.966;2022-08-19T13:59:31;7.50;;;4.70;;
57889;SDS011;43707;50.184;18.966;2022-08-19T14:01:58;9.00;;;4.90;;
57889;SDS011;43707;50.184;18.966;2022-08-19T14:04:24;7.80;;;4.00;;
57889;SDS011;43707;50.184;18.966;2022-08-19T14:06:50;6.80;;;4.50;;
57889;SDS011;43707;50.184;18.966;2022-08-19T14:09:15;10.60;;;5.00;;
57889;SDS011;43707;50.184;18.966;2022-08-19T14:11:41;12.10;;;4.10;;
57889;SDS011;43707;50.184;18.966;2022-08-19T14:14:06;11.30;;;4.30;;
57889;SDS011;43707;50.184;18.966;2022-08-19T14:16:31;8.90;;;4.50;;
57889;SDS011;43707;50.184;18.966;2022-08-19T14:18:57;8.20;;;4.20;;
57889;SDS011;43707;50.184;18.966;2022-08-19T14:21:22;8.50;;;4.00;;
57889;SDS011;43707;50.184;18.966;2022-08-19T14:23:50;10.90;;;4.20;;
57889;SDS011;43707;50.184;18.966;2022-08-19T14:26:16;5.90;;;4.10;;
57889;SDS011;43707;50.184;18.966;2022-08-19T14:28:43;8.40;;;4.20;;
57889;SDS011;43707;50.184;18.966;2022-08-19T14:31:10;9.90;;;4.10;;